Pilot Point, Alaska
Current Conditions -  °F | °C
As of 4:56 PM on Tuesday 21 Oct 2014 (Local Time) from PAPN Reporting Station
Scattered Clouds Scattered Clouds  
Wind Chill: 38°   Ceiling: Unl
Heat Index: 38°   Visibility: 10mi
Dew Point: 29°   Wind: 0mph
Humidity: 71%   Direction: NA
Pressure: 29.29"   Gusts: NA
Location:  57.56°N, 157.58°W
Report Text: PAPN 220056Z AUTO 00000KT 10SM FEW025 SCT075 03/M02 A2929 RMK AO2 PWINO TSNO T00331016 SLP920 $
Loading
Personal Weather Stations






























Interactive Weather Map New forecast layout! Learn more

10-Day Weather Forecast

Advertisements
Track Severe Weather on mobile